Time;durP1;ratioP1;P1;durP2;ratioP2;P2;SDS_P1;SDS_P2;PMS_P1;PMS_P2;Temp;Humidity;BMP_temperature;BMP_pressure;BME280_temperature;BME280_humidity;BME280_pressure;Samples;Min_cycle;Max_cycle;Signal;HPM_P1;HPM_P2
2022/03/01 00:00:32;;;;;;;;;;;6.60;43.20;;;;;;5058378;28;19923;-85
2022/03/01 00:02:58;;;;;;;;;;;6.60;43.40;;;;;;5075873;28;19912;-85
2022/03/01 00:05:23;;;;;;;;;;;6.50;43.30;;;;;;5058045;28;19916;-86
2022/03/01 00:07:49;;;;;;;;;;;6.50;43.40;;;;;;5075803;28;19912;-86
2022/03/01 00:10:14;;;;;;;;;;;6.40;43.70;;;;;;5058037;28;19956;-86
2022/03/01 00:12:40;;;;;;;;;;;6.40;43.90;;;;;;5076344;28;20356;-86
2022/03/01 00:15:06;;;;;;;;;;;6.40;44.00;;;;;;5076538;28;19964;-86
2022/03/01 00:17:31;;;;;;;;;;;6.40;44.10;;;;;;5057939;28;20158;-86
2022/03/01 00:19:57;;;;;;;;;;;6.40;44.10;;;;;;5057776;28;19921;-85
2022/03/01 00:22:22;;;;;;;;;;;6.40;44.10;;;;;;5056377;28;19917;-86
2022/03/01 00:24:48;;;;;;;;;;;6.30;43.90;;;;;;5058600;28;19917;-86
2022/03/01 00:27:13;;;;;;;;;;;6.20;43.90;;;;;;5060012;28;20037;-86
2022/03/01 00:29:39;;;;;;;;;;;6.20;43.90;;;;;;5059347;28;20356;-86
2022/03/01 00:32:05;;;;;;;;;;;6.20;43.90;;;;;;5059154;28;19913;-86
2022/03/01 00:34:30;;;;;;;;;;;6.10;44.00;;;;;;5077457;28;19928;-86
2022/03/01 00:36:56;;;;;;;;;;;6.00;44.20;;;;;;5059269;28;19924;-87
2022/03/01 00:39:21;;;;;;;;;;;6.00;44.40;;;;;;5076982;28;19977;-86
2022/03/01 00:41:47;;;;;;;;;;;6.00;44.50;;;;;;5077516;28;19913;-86
2022/03/01 00:44:13;;;;;;;;;;;6.00;44.70;;;;;;5077031;28;20290;-86
2022/03/01 00:46:38;;;;;;;;;;;6.00;44.80;;;;;;5076973;28;19958;-86
2022/03/01 00:49:04;;;;;;;;;;;6.00;44.80;;;;;;5059039;28;19924;-86
2022/03/01 00:51:29;;;;;;;;;;;6.00;44.90;;;;;;5044102;28;20353;-86
2022/03/01 00:53:55;;;;;;;;;;;5.90;44.90;;;;;;5047116;28;19917;-86
2022/03/01 00:56:21;;;;;;;;;;;5.90;45.20;;;;;;5077285;28;19908;-86
2022/03/01 00:58:46;;;;;;;;;;;5.90;45.40;;;;;;5057890;28;19920;-86
2022/03/01 01:01:12;;;;;;;;;;;5.90;45.60;;;;;;5075391;28;20284;-86
2022/03/01 01:03:37;;;;;;;;;;;5.90;45.60;;;;;;5060993;28;19932;-86
2022/03/01 01:06:03;;;;;;;;;;;5.90;45.60;;;;;;5076921;28;19928;-86
2022/03/01 01:08:29;;;;;;;;;;;5.90;45.80;;;;;;5076609;28;20372;-86
2022/03/01 01:10:54;;;;;;;;;;;5.90;45.80;;;;;;5075808;28;19955;-87
2022/03/01 01:13:20;;;;;;;;;;;5.90;45.90;;;;;;5058922;28;19908;-86
2022/03/01 01:15:46;;;;;;;;;;;5.90;46.00;;;;;;5058482;28;19919;-87
2022/03/01 01:18:11;;;;;;;;;;;5.90;46.10;;;;;;5058103;28;19917;-87
2022/03/01 01:20:37;;;;;;;;;;;5.90;46.10;;;;;;5059025;28;19931;-87
2022/03/01 01:23:03;;;;;;;;;;;6.00;46.10;;;;;;5076868;28;19919;-87
2022/03/01 01:25:28;;;;;;;;;;;5.90;46.10;;;;;;5058165;28;19916;-87
2022/03/01 01:27:56;;;;;;;;;;;5.90;46.00;;;;;;5076141;28;19919;-87
2022/03/01 01:30:22;;;;;;;;;;;5.90;46.30;;;;;;5058056;28;19909;-87
2022/03/01 01:32:48;;;;;;;;;;;5.90;46.50;;;;;;5060947;28;19916;-86
2022/03/01 01:35:14;;;;;;;;;;;6.00;46.60;;;;;;5075638;28;20383;-87
2022/03/01 01:37:40;;;;;;;;;;;5.90;46.60;;;;;;5057725;28;19928;-87
2022/03/01 01:40:07;;;;;;;;;;;6.00;46.60;;;;;;5076549;28;19908;-87
2022/03/01 01:42:32;;;;;;;;;;;6.00;46.60;;;;;;5076470;28;19924;-87
2022/03/01 01:44:58;;;;;;;;;;;5.90;46.60;;;;;;5057989;28;19958;-87
2022/03/01 01:47:23;;;;;;;;;;;5.90;46.60;;;;;;5057859;28;19923;-87
2022/03/01 01:49:49;;;;;;;;;;;5.90;46.60;;;;;;5057425;28;19923;-87
2022/03/01 01:52:14;;;;;;;;;;;5.90;46.70;;;;;;5052586;28;20357;-87
2022/03/01 01:54:40;;;;;;;;;;;5.90;46.80;;;;;;5064891;28;19912;-87
2022/03/01 01:57:13;;;;;;;;;;;5.90;46.80;;;;;;5076067;28;19917;-87
2022/03/01 01:59:38;;;;;;;;;;;5.80;46.70;;;;;;5057661;28;20269;-87
2022/03/01 02:02:04;;;;;;;;;;;5.80;46.50;;;;;;5075487;28;19924;-87
2022/03/01 02:04:29;;;;;;;;;;;5.80;46.50;;;;;;5075696;28;20001;-87
2022/03/01 02:06:55;;;;;;;;;;;5.70;46.60;;;;;;5057637;28;20014;-87
2022/03/01 02:09:22;;;;;;;;;;;5.70;46.60;;;;;;5075280;28;19912;-87
2022/03/01 02:11:48;;;;;;;;;;;5.70;46.70;;;;;;5057419;28;20027;-87
2022/03/01 02:14:13;;;;;;;;;;;5.60;46.70;;;;;;5075176;28;19952;-87
2022/03/01 02:16:39;;;;;;;;;;;5.60;47.00;;;;;;5075064;28;20348;-87
2022/03/01 02:19:05;;;;;;;;;;;5.60;47.30;;;;;;5057386;28;19920;-87
2022/03/01 02:21:31;;;;;;;;;;;5.60;47.40;;;;;;5057490;28;19920;-86
2022/03/01 02:23:56;;;;;;;;;;;5.50;47.50;;;;;;5057224;28;20002;-86
2022/03/01 02:26:22;;;;;;;;;;;5.60;47.60;;;;;;5057865;28;19927;-87
2022/03/01 02:28:47;;;;;;;;;;;5.60;47.60;;;;;;5057314;28;19913;-87
2022/03/01 02:31:13;;;;;;;;;;;5.60;47.60;;;;;;5056505;28;19920;-87
2022/03/01 02:33:38;;;;;;;;;;;5.60;47.60;;;;;;5064381;28;19909;-87
2022/03/01 02:36:04;;;;;;;;;;;5.60;47.60;;;;;;5057012;28;19924;-87
2022/03/01 02:38:29;;;;;;;;;;;5.50;47.60;;;;;;5056836;28;20328;-86
2022/03/01 02:40:55;;;;;;;;;;;5.60;47.70;;;;;;5057320;28;19978;-86
2022/03/01 02:43:20;;;;;;;;;;;5.50;47.60;;;;;;5056921;28;20343;-87
2022/03/01 02:45:46;;;;;;;;;;;5.50;47.60;;;;;;5074734;28;19917;-87
2022/03/01 02:48:11;;;;;;;;;;;5.40;47.70;;;;;;5055598;28;20389;-86
2022/03/01 02:50:37;;;;;;;;;;;5.40;47.70;;;;;;5067942;28;19947;-87
2022/03/01 02:53:02;;;;;;;;;;;5.40;47.50;;;;;;5057569;28;19908;-86
2022/03/01 02:55:28;;;;;;;;;;;5.30;47.40;;;;;;5056170;28;19954;-87
2022/03/01 02:57:53;;;;;;;;;;;5.30;47.30;;;;;;5056921;28;20308;-87
2022/03/01 03:00:19;;;;;;;;;;;5.20;47.30;;;;;;5074451;28;20326;-87
2022/03/01 03:02:44;;;;;;;;;;;5.20;47.40;;;;;;5056845;28;20011;-87
2022/03/01 03:05:10;;;;;;;;;;;5.10;47.30;;;;;;5074400;28;20033;-87
2022/03/01 03:07:36;;;;;;;;;;;5.00;47.30;;;;;;5056147;28;19916;-87
2022/03/01 03:10:01;;;;;;;;;;;5.00;47.20;;;;;;5055857;28;20273;-86
2022/03/01 03:12:27;;;;;;;;;;;4.90;47.30;;;;;;5074836;28;20333;-85
2022/03/01 03:14:53;;;;;;;;;;;4.90;47.40;;;;;;5056561;28;19916;-86
2022/03/01 03:17:18;;;;;;;;;;;4.80;47.50;;;;;;5074928;28;19923;-86
2022/03/01 03:19:43;;;;;;;;;;;4.80;47.60;;;;;;5056554;28;20015;-86
2022/03/01 03:22:09;;;;;;;;;;;4.80;47.90;;;;;;5056468;28;20368;-86
2022/03/01 03:24:34;;;;;;;;;;;4.80;48.00;;;;;;5074599;28;19952;-86
2022/03/01 03:27:00;;;;;;;;;;;4.70;48.00;;;;;;5056798;28;19939;-87
2022/03/01 03:29:26;;;;;;;;;;;4.70;48.20;;;;;;5074209;28;20375;-87
2022/03/01 03:31:56;;;;;;;;;;;4.70;48.40;;;;;;5074936;28;19924;-86
2022/03/01 03:34:22;;;;;;;;;;;4.70;48.50;;;;;;5074656;28;19912;-86
2022/03/01 03:36:48;;;;;;;;;;;4.70;48.40;;;;;;5051905;28;19967;-86
2022/03/01 03:39:13;;;;;;;;;;;4.70;48.50;;;;;;5053967;28;19916;-86
2022/03/01 03:41:39;;;;;;;;;;;4.70;48.70;;;;;;5065623;28;20007;-87
2022/03/01 03:44:05;;;;;;;;;;;4.70;48.80;;;;;;5056495;28;19951;-86
2022/03/01 03:46:30;;;;;;;;;;;4.70;49.00;;;;;;5056263;28;19916;-87
2022/03/01 03:48:56;;;;;;;;;;;4.70;49.00;;;;;;5072500;28;20383;-87
2022/03/01 03:51:23;;;;;;;;;;;4.70;49.10;;;;;;5062713;28;19921;-87
2022/03/01 03:53:48;;;;;;;;;;;4.80;49.30;;;;;;5047801;28;19912;-87
2022/03/01 03:56:14;;;;;;;;;;;4.80;49.10;;;;;;5056125;28;20280;-86
2022/03/01 03:58:39;;;;;;;;;;;4.80;49.20;;;;;;5055289;28;19920;-87
2022/03/01 04:01:05;;;;;;;;;;;4.80;49.30;;;;;;5074111;28;20327;-87
2022/03/01 04:03:30;;;;;;;;;;;4.80;49.30;;;;;;5072951;28;19958;-86
2022/03/01 04:05:56;;;;;;;;;;;4.80;49.30;;;;;;5056096;28;20289;-87
2022/03/01 04:08:21;;;;;;;;;;;4.80;49.30;;;;;;5055617;28;20285;-87
2022/03/01 04:10:47;;;;;;;;;;;4.90;49.40;;;;;;5056013;28;19920;-86
2022/03/01 04:13:13;;;;;;;;;;;4.90;49.50;;;;;;5074057;28;19916;-87
2022/03/01 04:15:38;;;;;;;;;;;4.90;49.60;;;;;;5073105;28;20284;-86
2022/03/01 04:18:04;;;;;;;;;;;4.90;49.60;;;;;;5074114;28;19923;-87
2022/03/01 04:20:30;;;;;;;;;;;5.00;49.50;;;;;;5055741;28;19915;-87
2022/03/01 04:22:55;;;;;;;;;;;5.00;49.50;;;;;;5055385;28;20386;-86
2022/03/01 04:25:21;;;;;;;;;;;5.00;49.50;;;;;;5073820;28;19916;-86
2022/03/01 04:27:46;;;;;;;;;;;5.00;49.60;;;;;;5073077;28;20248;-87
2022/03/01 04:30:12;;;;;;;;;;;5.00;49.70;;;;;;5073299;28;19947;-87
2022/03/01 04:32:38;;;;;;;;;;;5.00;49.70;;;;;;5073846;28;19927;-85
2022/03/01 04:35:04;;;;;;;;;;;5.00;49.90;;;;;;5055627;28;19912;-86
2022/03/01 04:37:30;;;;;;;;;;;5.00;50.00;;;;;;5073151;28;19923;-86
2022/03/01 04:39:55;;;;;;;;;;;5.10;50.00;;;;;;5055238;28;19924;-87
2022/03/01 04:42:21;;;;;;;;;;;5.10;50.10;;;;;;5055311;28;19924;-86
2022/03/01 04:44:47;;;;;;;;;;;5.10;49.90;;;;;;5073240;28;19919;-86
2022/03/01 04:47:14;;;;;;;;;;;5.10;49.90;;;;;;5055625;28;20011;-87
2022/03/01 04:49:39;;;;;;;;;;;5.20;49.90;;;;;;5055332;28;19916;-87
2022/03/01 04:52:05;;;;;;;;;;;5.20;49.90;;;;;;5071597;28;20284;-86
2022/03/01 04:54:31;;;;;;;;;;;5.20;49.80;;;;;;5055242;28;19913;-87
2022/03/01 04:56:56;;;;;;;;;;;5.20;49.80;;;;;;5054917;28;19970;-87
2022/03/01 04:59:22;;;;;;;;;;;5.20;49.70;;;;;;5073190;28;20378;-86
2022/03/01 05:01:47;;;;;;;;;;;5.10;49.70;;;;;;5055219;28;19920;-86
2022/03/01 05:04:13;;;;;;;;;;;5.10;49.70;;;;;;5055412;28;19912;-86
2022/03/01 05:06:38;;;;;;;;;;;5.20;49.80;;;;;;5053608;28;20353;-86
2022/03/01 05:09:04;;;;;;;;;;;5.10;49.80;;;;;;5055186;28;20257;-88
2022/03/01 05:11:29;;;;;;;;;;;5.10;49.60;;;;;;5075503;28;20061;-86
2022/03/01 05:13:55;;;;;;;;;;;5.10;49.50;;;;;;5077149;28;20000;-86
2022/03/01 05:16:20;;;;;;;;;;;5.00;49.30;;;;;;5076936;28;19950;-85
2022/03/01 05:18:45;;;;;;;;;;;5.00;49.20;;;;;;5076571;28;19916;-88
2022/03/01 05:21:11;;;;;;;;;;;4.90;49.20;;;;;;5058942;28;19931;-88
2022/03/01 05:23:36;;;;;;;;;;;4.80;49.20;;;;;;5076762;28;19912;-85
2022/03/01 05:26:02;;;;;;;;;;;4.80;49.40;;;;;;5058348;28;19974;-86
2022/03/01 05:28:30;;;;;;;;;;;4.70;49.50;;;;;;5058420;28;20356;-87
2022/03/01 05:30:56;;;;;;;;;;;4.70;49.60;;;;;;5054712;28;20054;-86
2022/03/01 05:33:21;;;;;;;;;;;4.70;49.70;;;;;;5059464;28;19982;-86
2022/03/01 05:35:47;;;;;;;;;;;4.70;49.80;;;;;;5061825;28;20343;-87
2022/03/01 05:38:12;;;;;;;;;;;4.60;49.80;;;;;;5076340;28;19973;-86
2022/03/01 05:40:38;;;;;;;;;;;4.60;49.90;;;;;;5069669;28;19924;-87
2022/03/01 05:43:04;;;;;;;;;;;4.60;50.00;;;;;;5053537;28;19920;-86
2022/03/01 05:45:30;;;;;;;;;;;4.60;50.00;;;;;;5056945;28;19912;-87
2022/03/01 05:47:56;;;;;;;;;;;4.50;49.90;;;;;;5068430;28;20344;-87
2022/03/01 05:50:22;;;;;;;;;;;4.50;50.10;;;;;;5043921;28;20078;-87
2022/03/01 05:52:48;;;;;;;;;;;4.50;50.30;;;;;;5065801;28;19917;-85
2022/03/01 05:55:14;;;;;;;;;;;4.50;50.40;;;;;;5066256;28;19938;-88
2022/03/01 05:57:40;;;;;;;;;;;4.50;50.30;;;;;;5073438;28;19916;-87
2022/03/01 06:00:06;;;;;;;;;;;4.50;50.10;;;;;;5055705;28;20197;-88
2022/03/01 06:02:32;;;;;;;;;;;4.50;50.10;;;;;;5047240;28;20015;-86
2022/03/01 06:04:57;;;;;;;;;;;4.40;50.10;;;;;;5044312;28;20415;-87
2022/03/01 06:07:23;;;;;;;;;;;4.40;50.20;;;;;;5047219;28;19920;-87
2022/03/01 06:09:48;;;;;;;;;;;4.40;50.30;;;;;;5048355;28;20005;-87
2022/03/01 06:12:14;;;;;;;;;;;4.40;50.30;;;;;;5046630;28;19970;-87
2022/03/01 06:14:39;;;;;;;;;;;4.40;50.20;;;;;;5068169;28;19909;-87
2022/03/01 06:17:05;;;;;;;;;;;4.40;50.10;;;;;;5069201;28;19946;-87
2022/03/01 06:19:30;;;;;;;;;;;4.40;50.00;;;;;;5043798;28;20386;-87
2022/03/01 06:21:56;;;;;;;;;;;4.40;50.20;;;;;;5047744;28;19921;-86
2022/03/01 06:24:23;;;;;;;;;;;4.50;50.50;;;;;;5048836;28;20403;-87
2022/03/01 06:26:48;;;;;;;;;;;4.60;51.00;;;;;;5060958;28;19921;-87
2022/03/01 06:29:14;;;;;;;;;;;4.70;51.60;;;;;;5071145;28;19931;-87
2022/03/01 06:31:39;;;;;;;;;;;4.90;52.00;;;;;;5048907;28;19924;-88
2022/03/01 06:34:05;;;;;;;;;;;5.20;52.40;;;;;;5046491;28;19908;-87
2022/03/01 06:36:30;;;;;;;;;;;5.50;52.70;;;;;;5048501;28;20400;-86
2022/03/01 06:38:55;;;;;;;;;;;5.80;52.90;;;;;;5073112;28;20330;-86
2022/03/01 06:41:21;;;;;;;;;;;6.20;53.00;;;;;;5051424;28;20393;-86
2022/03/01 06:43:46;;;;;;;;;;;6.50;53.00;;;;;;5056913;28;20363;-87
2022/03/01 06:46:13;;;;;;;;;;;6.90;52.90;;;;;;5053636;28;19920;-88
2022/03/01 06:48:38;;;;;;;;;;;7.20;52.10;;;;;;5056992;28;20379;-88
2022/03/01 06:51:05;;;;;;;;;;;7.50;51.50;;;;;;5075052;28;19924;-87
2022/03/01 06:53:30;;;;;;;;;;;7.80;51.40;;;;;;5049000;28;20399;-86
2022/03/01 06:55:56;;;;;;;;;;;7.90;50.60;;;;;;5074052;28;19916;-88
2022/03/01 06:58:21;;;;;;;;;;;8.00;49.50;;;;;;5074444;28;19912;-87
2022/03/01 07:00:47;;;;;;;;;;;7.90;48.70;;;;;;5057231;28;19917;-87
2022/03/01 07:03:12;;;;;;;;;;;7.90;48.50;;;;;;5046876;28;19913;-87
2022/03/01 07:05:38;;;;;;;;;;;8.00;49.50;;;;;;5047329;28;19924;-87
2022/03/01 07:08:04;;;;;;;;;;;8.40;50.50;;;;;;5053467;28;19909;-87
2022/03/01 07:10:29;;;;;;;;;;;8.80;50.30;;;;;;5053447;28;20407;-87
2022/03/01 07:12:55;;;;;;;;;;;9.30;50.40;;;;;;5044159;28;19963;-87
2022/03/01 07:15:20;;;;;;;;;;;9.70;49.50;;;;;;5043218;28;19913;-86
2022/03/01 07:17:46;;;;;;;;;;;10.20;49.00;;;;;;5056437;28;19912;-86
2022/03/01 07:20:12;;;;;;;;;;;10.70;48.30;;;;;;5054160;28;20395;-86
2022/03/01 07:22:37;;;;;;;;;;;11.20;46.60;;;;;;5074251;28;19920;-87
2022/03/01 07:25:03;;;;;;;;;;;11.60;45.10;;;;;;5080333;28;20451;-87
2022/03/01 07:27:28;;;;;;;;;;;12.00;44.10;;;;;;5075018;28;19924;-87
2022/03/01 07:29:54;;;;;;;;;;;12.30;42.70;;;;;;5048571;28;19931;-88
2022/03/01 07:32:19;;;;;;;;;;;12.60;41.80;;;;;;5055487;28;19917;-87
2022/03/01 07:34:45;;;;;;;;;;;12.90;40.40;;;;;;5074133;28;19912;-86
2022/03/01 07:37:10;;;;;;;;;;;13.00;39.60;;;;;;5056807;28;19916;-87
2022/03/01 07:39:36;;;;;;;;;;;13.20;40.00;;;;;;5047949;28;19924;-86
2022/03/01 07:42:03;;;;;;;;;;;13.40;39.70;;;;;;5073876;28;20394;-87
2022/03/01 07:44:28;;;;;;;;;;;13.70;39.70;;;;;;5073495;28;19912;-87
2022/03/01 07:46:53;;;;;;;;;;;14.20;39.60;;;;;;5071486;28;19999;-87
2022/03/01 07:49:19;;;;;;;;;;;14.60;38.80;;;;;;5056014;28;19990;-87
2022/03/01 07:51:45;;;;;;;;;;;15.00;38.40;;;;;;5053879;28;19912;-88
2022/03/01 07:54:10;;;;;;;;;;;15.50;37.80;;;;;;5075352;28;19912;-88
2022/03/01 07:56:36;;;;;;;;;;;15.80;36.10;;;;;;5073777;28;20271;-88
2022/03/01 07:59:01;;;;;;;;;;;16.10;35.70;;;;;;5056311;28;19948;-86
2022/03/01 08:01:27;;;;;;;;;;;16.10;33.90;;;;;;5070976;28;19917;-87
2022/03/01 08:03:52;;;;;;;;;;;15.70;32.90;;;;;;5050499;28;20000;-87
2022/03/01 08:06:18;;;;;;;;;;;15.30;32.90;;;;;;5049411;28;19924;-87
2022/03/01 08:08:44;;;;;;;;;;;14.90;33.10;;;;;;5051497;28;20312;-87
2022/03/01 08:11:10;;;;;;;;;;;14.70;33.70;;;;;;5068408;28;20509;-87
2022/03/01 08:13:36;;;;;;;;;;;14.40;33.80;;;;;;5064563;28;19929;-87
2022/03/01 08:16:02;;;;;;;;;;;14.30;34.10;;;;;;5072478;28;19916;-86
2022/03/01 08:18:28;;;;;;;;;;;14.20;34.30;;;;;;5073003;28;19914;-86
2022/03/01 08:20:53;;;;;;;;;;;14.00;34.10;;;;;;5049061;28;20364;-88
2022/03/01 08:23:19;;;;;;;;;;;13.80;34.20;;;;;;5068345;28;20404;-88
2022/03/01 08:25:44;;;;;;;;;;;13.90;35.00;;;;;;5072241;28;20072;-88
2022/03/01 08:28:10;;;;;;;;;;;14.10;35.70;;;;;;5072147;28;19908;-87
2022/03/01 08:30:35;;;;;;;;;;;14.50;35.50;;;;;;5041040;28;20341;-88
2022/03/01 08:33:02;;;;;;;;;;;14.80;35.20;;;;;;5053635;28;19917;-87
2022/03/01 08:35:27;;;;;;;;;;;15.20;34.10;;;;;;5072216;28;19973;-87
2022/03/01 08:37:53;;;;;;;;;;;15.60;33.60;;;;;;5069487;28;20078;-86
2022/03/01 08:40:21;;;;;;;;;;;15.90;32.60;;;;;;5072113;28;20705;-86
2022/03/01 08:42:46;;;;;;;;;;;16.30;32.40;;;;;;5046137;28;19916;-87
2022/03/01 08:45:12;;;;;;;;;;;16.60;31.60;;;;;;5050890;28;19924;-86
2022/03/01 08:47:38;;;;;;;;;;;16.90;31.10;;;;;;5054119;28;19927;-86
2022/03/01 08:50:04;;;;;;;;;;;17.30;30.90;;;;;;5057750;28;20037;-87
2022/03/01 08:52:29;;;;;;;;;;;17.60;30.90;;;;;;5076114;28;19913;-86
2022/03/01 08:54:55;;;;;;;;;;;17.90;30.00;;;;;;5054875;28;19935;-86
2022/03/01 08:57:20;;;;;;;;;;;18.10;29.00;;;;;;5055471;28;19919;-87
2022/03/01 08:59:45;;;;;;;;;;;18.10;28.40;;;;;;5043971;28;20459;-88
2022/03/01 09:02:11;;;;;;;;;;;18.10;28.00;;;;;;5070986;28;19924;-88
2022/03/01 09:04:36;;;;;;;;;;;18.00;27.80;;;;;;5052203;28;20027;-88
2022/03/01 09:07:04;;;;;;;;;;;18.10;28.30;;;;;;5054508;28;20403;-87
2022/03/01 09:09:31;;;;;;;;;;;18.10;28.70;;;;;;5076201;28;20432;-87
2022/03/01 09:11:56;;;;;;;;;;;18.30;28.80;;;;;;5075737;28;19917;-88
2022/03/01 09:14:22;;;;;;;;;;;18.50;28.20;;;;;;5073622;28;20361;-87
2022/03/01 09:16:47;;;;;;;;;;;18.70;27.90;;;;;;5071583;28;19916;-88
2022/03/01 09:19:14;;;;;;;;;;;18.80;28.00;;;;;;5075587;28;19977;-87
2022/03/01 09:21:39;;;;;;;;;;;19.10;27.70;;;;;;5072762;28;19920;-86
2022/03/01 09:24:05;;;;;;;;;;;19.30;27.70;;;;;;5045232;28;20296;-87
2022/03/01 09:26:30;;;;;;;;;;;19.60;27.10;;;;;;5054306;28;19916;-87
2022/03/01 09:28:56;;;;;;;;;;;19.80;26.80;;;;;;5074879;28;19916;-87
2022/03/01 09:31:21;;;;;;;;;;;20.00;26.60;;;;;;5074014;28;19920;-86
2022/03/01 09:33:47;;;;;;;;;;;20.20;26.80;;;;;;5072674;28;20010;-86
2022/03/01 09:36:13;;;;;;;;;;;20.40;26.50;;;;;;5052801;28;20029;-86
2022/03/01 09:38:39;;;;;;;;;;;20.60;25.90;;;;;;5066191;28;20289;-86
2022/03/01 09:41:04;;;;;;;;;;;20.80;25.90;;;;;;5064887;28;19936;-87
2022/03/01 09:43:30;;;;;;;;;;;20.90;25.40;;;;;;5059788;28;20016;-88
2022/03/01 09:45:56;;;;;;;;;;;21.10;25.30;;;;;;5058477;28;19959;-87
2022/03/01 09:48:21;;;;;;;;;;;21.30;24.90;;;;;;5047763;28;19967;-87
2022/03/01 09:50:47;;;;;;;;;;;21.50;24.40;;;;;;5043517;28;20018;-87
2022/03/01 09:53:13;;;;;;;;;;;21.50;23.70;;;;;;5050015;28;19979;-87
2022/03/01 09:55:39;;;;;;;;;;;21.50;23.60;;;;;;5043949;28;19920;-87
2022/03/01 09:58:05;;;;;;;;;;;21.30;23.70;;;;;;5061495;28;19917;-87
2022/03/01 10:00:30;;;;;;;;;;;21.00;23.40;;;;;;5058666;28;20275;-87
2022/03/01 10:02:57;;;;;;;;;;;20.80;23.80;;;;;;5050696;28;19920;-87
2022/03/01 10:05:36;;;;;;;;;;;20.80;24.20;;;;;;5045897;28;20533;-87
2022/03/01 10:08:05;;;;;;;;;;;20.90;24.20;;;;;;5065827;28;19921;-87
2022/03/01 10:10:36;;;;;;;;;;;20.90;24.10;;;;;;5061329;28;19989;-87
2022/03/01 10:13:02;;;;;;;;;;;21.00;24.20;;;;;;5045806;28;19952;-87
2022/03/01 10:15:28;;;;;;;;;;;21.10;24.10;;;;;;5044984;28;20343;-87
2022/03/01 10:17:54;;;;;;;;;;;21.20;24.00;;;;;;5066695;28;19916;-87
2022/03/01 10:20:19;;;;;;;;;;;21.30;23.60;;;;;;5063270;28;19973;-87
2022/03/01 10:22:49;;;;;;;;;;;21.50;23.90;;;;;;5063884;28;20388;-87
2022/03/01 10:25:16;;;;;;;;;;;21.70;23.70;;;;;;5062244;28;20196;-89
2022/03/01 10:27:49;;;;;;;;;;;21.90;24.10;;;;;;5050690;28;19968;-89
2022/03/01 10:30:26;;;;;;;;;;;22.10;23.20;;;;;;5046672;28;19916;-87
2022/03/01 10:33:08;;;;;;;;;;;22.20;22.90;;;;;;5049496;28;20078;-88
2022/03/01 10:35:35;;;;;;;;;;;22.30;23.00;;;;;;5066137;28;20407;-87
2022/03/01 10:38:01;;;;;;;;;;;22.50;23.30;;;;;;5067251;28;19963;-87
2022/03/01 10:40:27;;;;;;;;;;;22.60;22.70;;;;;;5062733;28;19920;-87
2022/03/01 10:42:59;;;;;;;;;;;22.70;22.80;;;;;;5049428;28;19924;-87
2022/03/01 10:45:38;;;;;;;;;;;22.70;22.80;;;;;;5063516;28;19960;-86
2022/03/01 10:48:05;;;;;;;;;;;22.80;22.80;;;;;;5051924;28;19920;-89
2022/03/01 10:50:31;;;;;;;;;;;22.50;22.50;;;;;;5041849;28;19967;-87
2022/03/01 10:52:56;;;;;;;;;;;22.20;22.40;;;;;;5065660;28;19920;-87
2022/03/01 10:55:22;;;;;;;;;;;22.00;22.60;;;;;;5067116;28;19922;-87
2022/03/01 10:57:58;;;;;;;;;;;21.80;22.90;;;;;;5063869;28;20012;-86
2022/03/01 11:00:24;;;;;;;;;;;21.80;23.40;;;;;;5062538;28;20452;-87
2022/03/01 11:02:49;;;;;;;;;;;21.70;23.10;;;;;;5043329;28;20015;-86
2022/03/01 11:05:16;;;;;;;;;;;21.60;22.90;;;;;;5063535;28;21278;-86
2022/03/01 11:07:43;;;;;;;;;;;21.40;22.70;;;;;;5067225;28;20016;-86
2022/03/01 11:10:12;;;;;;;;;;;21.20;22.80;;;;;;5057744;28;19921;-87
2022/03/01 11:12:38;;;;;;;;;;;21.00;23.20;;;;;;5043611;28;19920;-87
2022/03/01 11:15:18;;;;;;;;;;;20.70;23.00;;;;;;5046738;28;20415;-89
2022/03/01 11:17:47;;;;;;;;;;;20.50;23.50;;;;;;5063592;28;20282;-86
2022/03/01 11:20:14;;;;;;;;;;;20.30;23.50;;;;;;5062700;28;19916;-87
2022/03/01 11:23:06;;;;;;;;;;;20.10;23.90;;;;;;5048379;28;19931;-87
2022/03/01 11:25:36;;;;;;;;;;;19.90;23.90;;;;;;5048074;28;19917;-87
2022/03/01 11:28:05;;;;;;;;;;;19.60;24.00;;;;;;5058257;28;19913;-87
2022/03/01 11:30:35;;;;;;;;;;;19.40;24.30;;;;;;5043339;28;19913;-87
2022/03/01 11:33:01;;;;;;;;;;;19.30;24.40;;;;;;5046936;28;19917;-87
2022/03/01 11:35:27;;;;;;;;;;;19.30;24.90;;;;;;5061913;28;19959;-87
2022/03/01 11:38:06;;;;;;;;;;;19.30;24.90;;;;;;5066774;28;19924;-87
2022/03/01 11:40:34;;;;;;;;;;;19.30;24.90;;;;;;5043239;28;19917;-87
2022/03/01 11:43:10;;;;;;;;;;;19.30;25.00;;;;;;5074898;28;19924;-86
2022/03/01 11:45:36;;;;;;;;;;;19.30;25.10;;;;;;5070518;28;19931;-86
2022/03/01 11:48:06;;;;;;;;;;;19.40;25.10;;;;;;5072232;28;20080;-86
2022/03/01 11:50:32;;;;;;;;;;;19.50;24.80;;;;;;5054982;28;19919;-87
2022/03/01 11:53:00;;;;;;;;;;;19.60;24.70;;;;;;5046625;28;19916;-87
2022/03/01 11:55:34;;;;;;;;;;;19.80;24.80;;;;;;5073819;28;19912;-86
2022/03/01 11:57:59;;;;;;;;;;;19.90;24.70;;;;;;5045723;28;19916;-87
2022/03/01 12:00:27;;;;;;;;;;;20.10;24.90;;;;;;5053997;28;20004;-87
2022/03/01 12:02:53;;;;;;;;;;;20.30;24.50;;;;;;5057364;28;19924;-87
2022/03/01 12:05:22;;;;;;;;;;;20.30;24.20;;;;;;5075671;28;19909;-86
2022/03/01 12:07:49;;;;;;;;;;;20.60;24.60;;;;;;5072527;28;20320;-87
2022/03/01 12:10:19;;;;;;;;;;;20.80;24.70;;;;;;5073874;28;19912;-88
2022/03/01 12:12:47;;;;;;;;;;;21.30;24.90;;;;;;5054848;28;20007;-87
2022/03/01 12:15:13;;;;;;;;;;;21.60;23.90;;;;;;5053584;28;19922;-87
2022/03/01 12:17:46;;;;;;;;;;;21.80;23.60;;;;;;5074154;28;20026;-87
2022/03/01 12:20:13;;;;;;;;;;;21.90;23.40;;;;;;5058258;28;19924;-87
2022/03/01 12:22:49;;;;;;;;;;;21.90;23.00;;;;;;5076418;28;19920;-87
2022/03/01 12:25:15;;;;;;;;;;;21.90;23.00;;;;;;5079324;28;19912;-88
2022/03/01 12:27:42;;;;;;;;;;;21.90;22.70;;;;;;5057927;28;19912;-89
2022/03/01 12:30:09;;;;;;;;;;;21.80;22.70;;;;;;5081326;28;19920;-88
2022/03/01 12:32:34;;;;;;;;;;;21.60;22.80;;;;;;5081327;28;19913;-88
2022/03/01 12:35:01;;;;;;;;;;;21.20;22.90;;;;;;5081059;28;19979;-87
2022/03/01 12:37:27;;;;;;;;;;;20.90;23.40;;;;;;5057757;28;20011;-86
2022/03/01 12:39:53;;;;;;;;;;;20.70;23.70;;;;;;5055731;28;19920;-86
2022/03/01 12:42:21;;;;;;;;;;;20.50;23.60;;;;;;5057679;28;20012;-88
2022/03/01 12:44:46;;;;;;;;;;;20.30;24.10;;;;;;5059757;28;19913;-87
2022/03/01 12:47:12;;;;;;;;;;;20.30;24.00;;;;;;5059172;28;19944;-87
2022/03/01 12:49:38;;;;;;;;;;;20.00;23.70;;;;;;5056061;28;19913;-87
2022/03/01 12:52:04;;;;;;;;;;;19.80;24.20;;;;;;5073140;28;19923;-88
2022/03/01 12:54:30;;;;;;;;;;;19.80;24.40;;;;;;5059179;28;19971;-87
2022/03/01 12:56:57;;;;;;;;;;;19.70;24.30;;;;;;5052328;28;19916;-88
2022/03/01 12:59:27;;;;;;;;;;;19.60;24.40;;;;;;5059068;28;19917;-88
2022/03/01 13:01:55;;;;;;;;;;;19.50;24.40;;;;;;5053616;28;19925;-87
2022/03/01 13:04:25;;;;;;;;;;;19.20;24.60;;;;;;5076139;28;19916;-87
2022/03/01 13:06:50;;;;;;;;;;;19.20;25.00;;;;;;5076230;28;20380;-87
2022/03/01 13:09:16;;;;;;;;;;;19.20;25.20;;;;;;5076098;28;19974;-88
2022/03/01 13:11:43;;;;;;;;;;;19.30;25.20;;;;;;5068694;28;19917;-88
2022/03/01 13:14:10;;;;;;;;;;;19.30;25.00;;;;;;5074591;28;20403;-87
2022/03/01 13:16:39;;;;;;;;;;;19.30;25.10;;;;;;5074892;28;19966;-88
2022/03/01 13:19:06;;;;;;;;;;;19.20;25.20;;;;;;5057418;28;20350;-87
2022/03/01 13:21:31;;;;;;;;;;;19.10;25.40;;;;;;5075243;28;20261;-87
2022/03/01 13:23:58;;;;;;;;;;;19.10;25.90;;;;;;5072137;28;19928;-87
2022/03/01 13:26:24;;;;;;;;;;;19.10;25.70;;;;;;5074164;28;19916;-87
2022/03/01 13:28:50;;;;;;;;;;;19.00;25.70;;;;;;5075147;28;19921;-87
2022/03/01 13:31:25;;;;;;;;;;;19.00;25.60;;;;;;5073243;28;19915;-87
2022/03/01 13:33:51;;;;;;;;;;;18.90;25.60;;;;;;5074674;28;20269;-87
2022/03/01 13:36:17;;;;;;;;;;;18.80;25.80;;;;;;5058405;28;19909;-87
2022/03/01 13:38:42;;;;;;;;;;;18.70;25.70;;;;;;5054468;28;20332;-85
2022/03/01 13:41:08;;;;;;;;;;;18.60;25.60;;;;;;5073844;28;19923;-86
2022/03/01 13:43:34;;;;;;;;;;;18.50;25.90;;;;;;5076258;28;19917;-87
2022/03/01 13:46:01;;;;;;;;;;;18.50;25.90;;;;;;5049848;28;20360;-87
2022/03/01 13:48:27;;;;;;;;;;;18.40;26.00;;;;;;5076361;28;19916;-87
2022/03/01 13:50:59;;;;;;;;;;;18.40;25.80;;;;;;5075530;28;20377;-88
2022/03/01 13:53:25;;;;;;;;;;;18.30;26.20;;;;;;5050296;28;19908;-87
2022/03/01 13:55:52;;;;;;;;;;;18.20;26.30;;;;;;5049361;28;19970;-86
2022/03/01 13:58:20;;;;;;;;;;;18.10;26.50;;;;;;5073437;28;19928;-87
2022/03/01 14:00:47;;;;;;;;;;;18.10;26.30;;;;;;5046839;28;20007;-87
2022/03/01 14:03:16;;;;;;;;;;;17.90;26.40;;;;;;5067770;28;20699;-87
2022/03/01 14:05:46;;;;;;;;;;;17.80;26.60;;;;;;5059811;28;19935;-87
2022/03/01 14:08:13;;;;;;;;;;;17.70;26.90;;;;;;5076061;28;19968;-87
2022/03/01 14:10:40;;;;;;;;;;;17.50;26.80;;;;;;5052173;28;19966;-87
2022/03/01 14:13:11;;;;;;;;;;;17.40;27.10;;;;;;5072380;28;19943;-87
2022/03/01 14:15:38;;;;;;;;;;;17.30;27.40;;;;;;5068561;28;20023;-89
2022/03/01 14:18:05;;;;;;;;;;;17.20;27.50;;;;;;5054323;28;20280;-88